Terminal Aerodrome Forecast
Issued by NWS

Home | Current Version | Previous Version | Text Only | Print | Product List | Glossary On
Versions: 1 2 3 4 5 6 7 8 9 10 11 12 13 14 15 16 17 18 19 20 21 22
000
FTUS43 KAPX 011120
TAFMBL
TAF
KMBL 011120Z 0112/0212 08007KT P6SM VCSH SCT015 OVC030
     FM011500 07009KT P6SM -SHRA OVC015
     FM012100 06008KT 3SM -SHRA BR OVC008
     FM020300 05005KT 1SM -SHRA BR OVC008=

USA.gov is the U.S. government's official web portal to all federal, state and local government web resources and services.